アテネ国際空港の過去48時間の天気

アテネ国際空港 (Athens Eleftherios Venizelos International Airport)

現在時刻: 11/13 10:21 EET (11/13 08:21 UTC) 以下の時間は現地時間です。

過去48時間のMETAR気象情報
時間 風向 風速(m/s) 視程 気温(℃) 湿度(%) 気圧(hPa) 天気現象
13 09:50 不定 2 7000m 16 88 1014 弱い雨
13 09:20 不定 2 8000m 16 88 1013 弱い雨
13 08:50 南西 2 5000m 16 88 1013
13 08:20 南南東 3 7000m 16 88 1013
13 07:50 不定 1 8000m 16 88 1012
13 07:20 不定 1 9000m 16 88 1012 弱い雨
13 06:50 1 9000m 16 88 1012
13 06:20 不定 2 10km以上 16 88 1011 弱い雨
13 05:50 不定 2 10km以上 16 88 1011 弱い雨
13 05:20 東北東 2 10km以上 16 88 1011 弱い雨
13 04:50 3 10km以上 16 88 1011 弱い雨
13 04:20 南南西 5 10km以上 16 88 1011 弱い雨
13 03:50 東南東 3 10km以上 16 100 1011 弱い雷雨
13 03:20 西南西 6 5000m 15 100 1011 雷雨
13 02:50 西 10 1000m 15 94 1012 強い雷雨
13 02:20 西 2 10km以上 17 94 1011 弱い雷雨
13 01:20 南西 1 10km以上 17 100 1011
13 00:50 西 2 10km以上 17 94 1011
13 00:20 不定 2 10km以上 17 94 1012
12 23:50 北北東 5 10km以上 18 83 1011 周辺で雷
12 23:20 南西 5 1000m 19 83 1014 強い雷雨
12 22:50 北北西 1 10km以上 19 83 1013 弱い雷雨
12 22:20 西南西 2 10km以上 19 83 1013
12 21:50 不定 1 10km以上 19 83 1013
LGAV 130750Z VRB03KT 7000 -RA FEW010 SCT020 OVC070 16/14 Q1014 RERA NOSIG
LGAV 130720Z VRB03KT 8000 -RA FEW009 SCT025 16/14 Q1013 RERA NOSIG
LGAV 130650Z 22004KT 5000 RA FEW020 SCT030 OVC070 16/14 Q1013 NOSIG
LGAV 130620Z 15006KT 120V200 7000 RA FEW020 SCT030 OVC070 16/14 Q1013 NOSIG
LGAV 130550Z VRB01KT 8000 RA SCT020 OVC070 16/14 Q1012 NOSIG
LGAV 130520Z VRB02KT 9000 -RA FEW018 SCT025 OVC070 16/14 Q1012 RERA NOSIG
LGAV 130450Z 36002KT 9000 RA SCT020 BKN050 16/14 Q1012 NOSIG
LGAV 130420Z VRB03KT 9999 -RA SCT020 BKN050 16/14 Q1011 NOSIG
LGAV 130350Z VRB03KT 9999 -RA SCT020 BKN070 16/14 Q1011 NOSIG
LGAV 130320Z 07004KT 030V100 9999 -RA FEW018TCU SCT020 BKN070 16/14 Q1011 NOSIG
LGAV 130250Z 19006KT 9999 -RA FEW018TCU SCT020 BKN070 16/14 Q1011 NOSIG
LGAV 130220Z 20009KT 9999 -RA FEW018TCU SCT020 BKN070 16/14 Q1011 NOSIG
LGAV 130150Z 11005KT 100V160 9999 -TSRA FEW018 SCT020 BKN070 16/16 Q1011 RETS NOSIG
LGAV 130120Z 24012KT 5000 TSRA SCT020 BKN050 15/15 Q1011 RETS NOSIG
LGAV 130050Z 26020KT 1000 R03R/1500N R03L/0750V1500D +TSRA SCT018CB SCT020 BKN050 15/14 Q1012 NOSIG
LGAV 130020Z 28003KT 9999 -TSRA FEW018CB SCT020 BKN050 17/16 Q1011 TEMPO TSRA
LGAV 122320Z 22002KT 9999 FEW020 17/17 Q1011 NOSIG
LGAV 122250Z 27004KT 9999 FEW018TCU 17/16 Q1011 NOSIG
LGAV 122220Z VRB03KT 9999 FEW018TCU SCT020 17/16 Q1012 RETS NOSIG
LGAV 122150Z 03009KT 9999 VCTS FEW018CB SCT020 18/15 Q1011 NOSIG
LGAV 122120Z 23010KT 1000 R21R/1500N R21L/1500N +TSRA FEW018CB SCT020 19/16 Q1014 TEMPO 3000 TSRA
LGAV 122050Z 34002KT 9999 -TSRA FEW018CB SCT020 19/16 Q1013 TEMPO TSRA
LGAV 122020Z 24003KT 9999 FEW018TCU SCT020 19/16 Q1013 NOSIG
LGAV 121950Z VRB01KT 9999 SCT020 19/16 Q1013 NOSIG